createdAt,value
2022-09-13T00:01:52.874Z,2.15
2022-09-13T00:04:21.268Z,1.95
2022-09-13T00:06:49.680Z,2.35
2022-09-13T00:09:18.095Z,2.00
2022-09-13T00:11:46.478Z,2.05
2022-09-13T00:14:14.877Z,2.00
2022-09-13T00:16:44.657Z,2.10
2022-09-13T00:19:13.096Z,2.50
2022-09-13T00:21:41.525Z,1.92
2022-09-13T00:24:10.464Z,1.88
2022-09-13T00:26:38.866Z,1.83
2022-09-13T00:29:07.289Z,2.00
2022-09-13T00:31:35.724Z,2.22
2022-09-13T00:34:05.553Z,1.90
2022-09-13T00:36:34.140Z,1.75
2022-09-13T00:39:02.579Z,1.70
2022-09-13T00:41:31.294Z,1.90
2022-09-13T00:44:00.598Z,1.90
2022-09-13T00:46:33.464Z,1.70
2022-09-13T00:49:03.386Z,1.83
2022-09-13T00:51:33.592Z,1.77
2022-09-13T00:54:03.151Z,2.00
2022-09-13T00:56:34.710Z,1.92
2022-09-13T00:59:04.419Z,2.10
2022-09-13T01:01:37.585Z,1.98
2022-09-13T01:04:09.625Z,1.75
2022-09-13T01:06:43.551Z,1.60
2022-09-13T01:09:13.832Z,1.90
2022-09-13T01:11:45.802Z,1.92
2022-09-13T01:14:14.589Z,2.05
2022-09-13T01:16:47.155Z,1.73
2022-09-13T01:19:19.013Z,2.20
2022-09-13T01:22:12.570Z,1.80
2022-09-13T01:24:55.924Z,1.58
2022-09-13T01:27:35.951Z,1.80
2022-09-13T01:30:16.845Z,1.80
2022-09-13T01:32:56.285Z,1.77
2022-09-13T01:35:30.320Z,1.90
2022-09-13T01:38:01.303Z,1.67
2022-09-13T01:40:37.362Z,1.90
2022-09-13T01:43:13.746Z,1.83
2022-09-13T01:45:46.461Z,1.70
2022-09-13T01:48:20.494Z,1.98
2022-09-13T01:50:53.348Z,1.98
2022-09-13T01:53:25.285Z,1.80
2022-09-13T01:55:59.918Z,2.17
2022-09-13T01:58:31.601Z,2.20
2022-09-13T02:01:05.638Z,1.85
2022-09-13T02:03:40.273Z,1.60
2022-09-13T02:06:11.525Z,2.00
2022-09-13T02:08:42.609Z,1.80
2022-09-13T02:11:12.721Z,1.70
2022-09-13T02:13:43.216Z,1.70
2022-09-13T02:16:17.397Z,1.70
2022-09-13T02:18:48.160Z,2.10
2022-09-13T02:21:18.893Z,1.80
2022-09-13T02:23:50.745Z,2.10
2022-09-13T02:26:20.452Z,1.67
2022-09-13T02:28:50.505Z,1.92
2022-09-13T02:31:21.549Z,1.88
2022-09-13T02:33:52.092Z,1.80
2022-09-13T02:36:24.434Z,2.08
2022-09-13T02:38:56.020Z,1.58
2022-09-13T02:41:27.736Z,1.80
2022-09-13T02:43:59.024Z,1.80
2022-09-13T02:46:37.154Z,1.80
2022-09-13T02:49:08.288Z,2.05
2022-09-13T02:51:41.148Z,1.60
2022-09-13T02:54:15.384Z,1.95
2022-09-13T02:56:46.538Z,2.03
2022-09-13T02:59:17.238Z,1.65
2022-09-13T03:01:48.772Z,1.73
2022-09-13T03:04:17.503Z,1.65
2022-09-13T03:06:45.899Z,1.65
2022-09-13T03:09:14.685Z,1.95
2022-09-13T03:11:57.224Z,1.83
2022-09-13T03:14:32.872Z,2.00
2022-09-13T03:17:10.259Z,2.17
2022-09-13T03:19:49.869Z,1.90
2022-09-13T03:22:26.013Z,2.00
2022-09-13T03:25:03.259Z,2.25
2022-09-13T03:27:36.499Z,2.05
2022-09-13T03:30:06.196Z,2.00
2022-09-13T03:32:39.064Z,2.10
2022-09-13T03:35:12.340Z,2.08
2022-09-13T03:37:46.469Z,2.10
2022-09-13T03:40:16.431Z,1.88
2022-09-13T03:42:47.673Z,2.08
2022-09-13T03:45:17.152Z,2.42
2022-09-13T03:47:48.407Z,2.10
2022-09-13T03:50:18.145Z,1.90
2022-09-13T03:52:47.546Z,2.10
2022-09-13T03:55:16.093Z,2.13
2022-09-13T03:57:44.874Z,2.25
2022-09-13T04:00:15.036Z,2.22
2022-09-13T04:02:43.434Z,2.20
2022-09-13T04:05:13.241Z,2.17
2022-09-13T04:07:41.841Z,2.20
2022-09-13T04:10:13.919Z,2.40
2022-09-13T04:12:42.496Z,2.30
2022-09-13T04:15:11.310Z,2.08
2022-09-13T04:17:39.724Z,2.70
2022-09-13T04:20:08.404Z,2.05
2022-09-13T04:22:38.245Z,2.15
2022-09-13T04:25:07.221Z,2.08
2022-09-13T04:27:36.035Z,2.42
2022-09-13T04:30:04.565Z,2.20
2022-09-13T04:32:33.800Z,2.25
2022-09-13T04:35:02.249Z,2.30
2022-09-13T04:37:30.684Z,2.20
2022-09-13T04:40:00.498Z,2.10
2022-09-13T04:42:28.945Z,2.20
2022-09-13T04:44:57.555Z,1.98
2022-09-13T04:47:26.016Z,2.28
2022-09-13T04:49:54.642Z,2.00
2022-09-13T04:52:23.056Z,2.03
2022-09-13T04:54:51.839Z,2.40
2022-09-13T04:57:21.600Z,2.10
2022-09-13T04:59:50.029Z,2.10
2022-09-13T05:02:18.632Z,2.15
2022-09-13T05:04:47.047Z,2.08
2022-09-13T05:07:15.443Z,2.00
2022-09-13T05:09:43.831Z,2.00
2022-09-13T05:12:12.961Z,2.17
2022-09-13T05:14:42.736Z,2.03
2022-09-13T05:17:11.116Z,1.90
2022-09-13T05:19:39.506Z,2.65
2022-09-13T05:22:07.916Z,2.30
2022-09-13T05:24:36.349Z,2.05
2022-09-13T05:27:04.738Z,2.08
2022-09-13T05:29:33.113Z,1.80
2022-09-13T05:32:03.002Z,2.05
2022-09-13T05:34:31.407Z,1.88
2022-09-13T05:36:59.836Z,2.40
2022-09-13T05:39:36.391Z,2.35
2022-09-13T05:42:12.311Z,2.00
2022-09-13T05:44:40.698Z,2.10
2022-09-13T05:47:10.500Z,2.38
2022-09-13T05:49:55.232Z,1.80
2022-09-13T05:52:27.615Z,2.33
2022-09-13T05:54:56.077Z,2.05
2022-09-13T05:57:24.524Z,1.88
2022-09-13T05:59:52.938Z,2.20
2022-09-13T06:02:22.864Z,2.30
2022-09-13T06:04:52.020Z,2.13
2022-09-13T06:07:20.425Z,2.08
2022-09-13T06:09:48.993Z,2.25
2022-09-13T06:12:17.372Z,2.20
2022-09-13T06:14:45.775Z,2.22
2022-09-13T06:17:14.197Z,2.05
2022-09-13T06:19:44.561Z,2.10
2022-09-13T06:22:12.973Z,2.17
2022-09-13T06:24:41.517Z,2.10
2022-09-13T06:27:10.432Z,2.00
2022-09-13T06:29:39.145Z,1.60
2022-09-13T06:32:07.918Z,1.95
2022-09-13T06:34:36.697Z,2.17
2022-09-13T06:37:06.506Z,2.10
2022-09-13T06:39:35.193Z,2.17
2022-09-13T06:42:03.604Z,1.88
2022-09-13T06:44:32.069Z,1.90
2022-09-13T06:47:00.470Z,1.60
2022-09-13T06:49:31.496Z,1.90
2022-09-13T06:52:00.303Z,2.00
2022-09-13T06:54:30.112Z,2.10
2022-09-13T06:56:58.525Z,2.17
2022-09-13T06:59:26.900Z,1.80
2022-09-13T07:01:55.393Z,2.08
2022-09-13T07:04:23.887Z,2.20
2022-09-13T07:06:52.473Z,1.60
2022-09-13T07:09:22.158Z,2.30
2022-09-13T07:11:53.000Z,2.20
2022-09-13T07:14:22.473Z,2.50
2022-09-13T07:16:51.876Z,2.60
2022-09-13T07:19:22.844Z,2.40
2022-09-13T07:21:51.556Z,2.65
2022-09-13T07:24:20.323Z,2.30
2022-09-13T07:26:48.756Z,2.33
2022-09-13T07:29:19.382Z,2.00
2022-09-13T07:31:48.879Z,2.40
2022-09-13T07:34:18.088Z,2.30
2022-09-13T07:36:46.922Z,2.65
2022-09-13T07:39:19.248Z,2.75
2022-09-13T07:41:50.105Z,2.60
2022-09-13T07:44:19.878Z,2.10
2022-09-13T07:46:48.313Z,2.47
2022-09-13T07:49:18.648Z,2.50
2022-09-13T07:51:51.268Z,2.50
2022-09-13T07:54:20.657Z,2.72
2022-09-13T07:56:50.376Z,2.80
2022-09-13T07:59:20.752Z,2.90
2022-09-13T08:01:49.730Z,2.50
2022-09-13T08:04:19.883Z,2.40
2022-09-13T08:06:48.464Z,2.10
2022-09-13T08:09:17.291Z,2.28
2022-09-13T08:11:46.934Z,2.10
2022-09-13T08:14:16.371Z,2.17
2022-09-13T08:16:46.154Z,1.73
2022-09-13T08:19:15.860Z,1.77
2022-09-13T08:21:44.491Z,1.70
2022-09-13T08:24:16.647Z,2.20
2022-09-13T08:26:45.568Z,1.60
2022-09-13T08:29:14.422Z,1.60
2022-09-13T08:31:43.110Z,2.00
2022-09-13T08:34:14.731Z,1.70
2022-09-13T08:36:43.496Z,2.38
2022-09-13T08:39:13.904Z,1.40
2022-09-13T08:42:03.576Z,1.65
2022-09-13T08:44:33.071Z,1.50
2022-09-13T08:47:04.592Z,1.60
2022-09-13T08:49:36.524Z,1.40
2022-09-13T08:52:07.820Z,1.65
2022-09-13T08:54:36.268Z,1.50
2022-09-13T08:57:08.829Z,1.65
2022-09-13T08:59:47.660Z,1.55
2022-09-13T09:02:24.503Z,1.58
2022-09-13T09:04:57.202Z,1.50
2022-09-13T09:07:26.900Z,1.88
2022-09-13T09:09:57.340Z,1.70
2022-09-13T09:12:29.936Z,1.95
2022-09-13T09:15:01.890Z,1.80
2022-09-13T09:17:33.192Z,1.80
2022-09-13T09:20:06.081Z,1.63
2022-09-13T09:22:36.161Z,1.67
2022-09-13T09:25:04.940Z,1.85
2022-09-13T09:27:33.933Z,1.90
2022-09-13T09:30:03.295Z,1.80
2022-09-13T09:32:41.192Z,1.70
2022-09-13T09:35:16.043Z,1.77
2022-09-13T09:37:45.436Z,2.30
2022-09-13T09:40:17.213Z,1.90
2022-09-13T09:42:46.559Z,2.25
2022-09-13T09:45:25.527Z,2.03
2022-09-13T09:47:54.488Z,1.80
2022-09-13T09:50:26.648Z,1.88
2022-09-13T09:52:58.129Z,1.98
2022-09-13T09:55:28.920Z,2.00
2022-09-13T09:57:59.771Z,2.20
2022-09-13T10:00:30.066Z,2.30
2022-09-13T10:03:01.119Z,1.83
2022-09-13T10:05:32.429Z,2.30
2022-09-13T10:08:02.943Z,2.20
2022-09-13T10:10:36.734Z,1.75
2022-09-13T10:13:06.496Z,2.10
2022-09-13T10:15:35.982Z,1.98
2022-09-13T10:18:21.145Z,1.48
2022-09-13T10:21:03.977Z,1.90
2022-09-13T10:23:32.477Z,1.73
2022-09-13T10:26:03.884Z,1.60
2022-09-13T10:28:32.833Z,1.85
2022-09-13T10:31:04.300Z,2.10
2022-09-13T10:33:34.162Z,2.10
2022-09-13T10:36:07.154Z,2.00
2022-09-13T10:38:36.829Z,2.10
2022-09-13T10:41:06.553Z,1.80
2022-09-13T10:43:35.568Z,1.92
2022-09-13T10:46:05.187Z,2.30
2022-09-13T10:48:45.499Z,2.17
2022-09-13T10:51:22.624Z,2.47
2022-09-13T10:53:51.081Z,2.05
2022-09-13T10:56:23.216Z,2.30
2022-09-13T10:58:51.732Z,2.17
2022-09-13T11:01:39.636Z,1.52
2022-09-13T11:04:39.084Z,1.85
2022-09-13T11:07:18.073Z,1.90
2022-09-13T11:09:50.231Z,2.10
2022-09-13T11:12:21.309Z,1.88
2022-09-13T11:14:55.765Z,2.10
2022-09-13T11:17:30.185Z,1.85
2022-09-13T11:20:04.976Z,1.77
2022-09-13T11:22:43.838Z,1.63
2022-09-13T11:25:19.064Z,2.25
2022-09-13T11:27:55.145Z,1.55
2022-09-13T11:30:29.698Z,1.90
2022-09-13T11:33:07.927Z,1.80
2022-09-13T11:35:44.213Z,2.40
2022-09-13T11:38:23.998Z,2.35
2022-09-13T11:40:58.631Z,1.83
2022-09-13T11:43:36.688Z,2.20
2022-09-13T11:46:08.112Z,1.85
2022-09-13T11:49:00.536Z,1.80
2022-09-13T11:51:32.016Z,1.80
2022-09-13T11:54:08.556Z,2.08
2022-09-13T11:56:40.054Z,2.30
2022-09-13T11:59:16.766Z,1.90
2022-09-13T12:01:47.459Z,2.15
2022-09-13T12:04:20.089Z,2.00
2022-09-13T12:06:50.409Z,2.15
2022-09-13T12:09:24.098Z,3.03
2022-09-13T12:11:54.948Z,2.20
2022-09-13T12:14:24.569Z,2.40
2022-09-13T12:16:54.527Z,2.30
2022-09-13T12:19:25.397Z,2.00
2022-09-13T12:21:55.929Z,2.25
2022-09-13T12:24:31.765Z,2.30
2022-09-13T12:27:02.517Z,2.50
2022-09-13T12:29:34.417Z,2.58
2022-09-13T12:32:06.336Z,3.15
2022-09-13T12:34:40.144Z,2.75
2022-09-13T12:37:15.461Z,2.20
2022-09-13T12:39:53.239Z,2.55
2022-09-13T12:42:40.303Z,3.10
2022-09-13T12:45:18.944Z,2.55
2022-09-13T12:48:05.893Z,2.35
2022-09-13T12:50:43.818Z,2.67
2022-09-13T12:53:20.830Z,2.58
2022-09-13T12:56:00.088Z,2.20
2022-09-13T12:58:38.850Z,2.55
2022-09-13T13:01:11.262Z,2.28
2022-09-13T13:03:45.526Z,2.40
2022-09-13T13:06:19.641Z,2.60
2022-09-13T13:08:51.999Z,2.65
2022-09-13T13:11:24.132Z,2.35
2022-09-13T13:13:56.871Z,2.35
2022-09-13T13:16:27.521Z,2.50
2022-09-13T13:18:56.735Z,2.42
2022-09-13T13:21:27.365Z,3.15
2022-09-13T13:24:14.447Z,2.40
2022-09-13T13:26:48.494Z,2.70
2022-09-13T13:29:19.119Z,2.65
2022-09-13T13:31:48.940Z,2.60
2022-09-13T13:34:38.325Z,2.42
2022-09-13T13:37:24.288Z,2.85
2022-09-13T13:40:13.233Z,2.83
2022-09-13T13:42:45.222Z,2.13
2022-09-13T13:45:18.594Z,2.00
2022-09-13T13:48:05.247Z,1.90
2022-09-13T13:50:36.267Z,2.22
2022-09-13T13:53:21.950Z,2.38
2022-09-13T13:55:51.195Z,1.67
2022-09-13T13:58:39.589Z,1.90
2022-09-13T14:01:08.190Z,1.92
2022-09-13T14:03:51.416Z,1.70
2022-09-13T14:06:23.615Z,1.80
2022-09-13T14:11:37.604Z,2.17
2022-09-13T14:14:17.226Z,1.90
2022-09-13T14:16:53.076Z,2.30
2022-09-13T14:19:24.333Z,2.10
2022-09-13T14:22:12.610Z,2.22
2022-09-13T14:24:43.213Z,2.08
2022-09-13T14:27:16.869Z,2.00
2022-09-13T14:29:50.791Z,1.95
2022-09-13T14:32:21.668Z,1.98
2022-09-13T14:34:54.411Z,1.80
2022-09-13T14:37:25.465Z,1.90
2022-09-13T14:39:57.789Z,1.70
2022-09-13T14:42:26.285Z,1.90
2022-09-13T14:44:56.725Z,1.67
2022-09-13T14:47:30.501Z,1.92
2022-09-13T14:50:01.980Z,1.38
2022-09-13T14:52:32.280Z,1.77
2022-09-13T14:55:04.596Z,1.45
2022-09-13T14:57:34.996Z,1.40
2022-09-13T15:00:09.041Z,1.25
2022-09-13T15:02:39.031Z,1.10
2022-09-13T15:05:10.050Z,1.13
2022-09-13T15:07:39.509Z,1.05
2022-09-13T15:10:10.152Z,1.45
2022-09-13T15:12:38.765Z,1.10
2022-09-13T15:15:26.195Z,1.10
2022-09-13T15:17:55.449Z,0.90
2022-09-13T15:20:24.540Z,0.98
2022-09-13T15:22:53.884Z,1.10
2022-09-13T15:25:23.743Z,1.50
2022-09-13T15:27:52.319Z,1.23
2022-09-13T15:30:29.865Z,1.10
2022-09-13T15:33:21.981Z,1.30
2022-09-13T15:35:50.462Z,1.58
2022-09-13T15:38:20.281Z,1.45
2022-09-13T15:40:49.924Z,1.10
2022-09-13T15:43:18.454Z,1.23
2022-09-13T15:45:48.236Z,1.45
2022-09-13T15:48:21.997Z,1.20
2022-09-13T15:51:05.639Z,1.25
2022-09-13T15:53:34.223Z,1.30
2022-09-13T15:56:03.000Z,1.33
2022-09-13T15:58:31.500Z,1.25
2022-09-13T16:01:01.321Z,1.40
2022-09-13T16:03:29.993Z,1.20
2022-09-13T16:05:58.488Z,1.10
2022-09-13T16:08:27.238Z,1.55
2022-09-13T16:10:55.655Z,1.35
2022-09-13T16:13:24.138Z,1.45
2022-09-13T16:15:55.914Z,1.33
2022-09-13T16:18:27.878Z,1.23
2022-09-13T16:20:56.432Z,1.67
2022-09-13T16:23:24.937Z,1.20
2022-09-13T16:25:54.697Z,1.48
2022-09-13T16:28:23.124Z,1.40
2022-09-13T16:30:51.807Z,1.40
2022-09-13T16:33:20.654Z,1.40
2022-09-13T16:35:50.484Z,1.58
2022-09-13T16:38:18.949Z,1.65
2022-09-13T16:40:47.747Z,1.40
2022-09-13T16:43:16.209Z,1.73
2022-09-13T16:45:45.223Z,1.70
2022-09-13T16:48:13.657Z,1.40
2022-09-13T16:50:42.591Z,1.73
2022-09-13T16:53:12.365Z,1.80
2022-09-13T16:55:40.820Z,1.58
2022-09-13T16:58:09.212Z,1.67
2022-09-13T17:00:37.638Z,2.00
2022-09-13T17:03:06.247Z,1.90
2022-09-13T17:05:34.687Z,1.63
2022-09-13T17:08:03.255Z,1.90
2022-09-13T17:10:33.026Z,1.90
2022-09-13T17:13:01.437Z,2.00
2022-09-13T17:15:29.837Z,1.92
2022-09-13T17:17:58.241Z,2.10
2022-09-13T17:20:26.644Z,1.98
2022-09-13T17:22:55.049Z,1.85
2022-09-13T17:25:23.476Z,1.60
2022-09-13T17:27:53.245Z,1.80
2022-09-13T17:30:22.212Z,1.83
2022-09-13T17:32:50.648Z,1.80
2022-09-13T17:35:19.093Z,2.00
2022-09-13T17:37:47.492Z,2.10
2022-09-13T17:40:15.977Z,2.20
2022-09-13T17:42:44.544Z,1.95
2022-09-13T17:45:14.343Z,1.70
2022-09-13T17:47:42.824Z,1.65
2022-09-13T17:50:11.487Z,1.63
2022-09-13T17:52:39.951Z,1.48
2022-09-13T17:55:09.382Z,1.90
2022-09-13T17:57:37.921Z,1.95
2022-09-13T18:00:07.789Z,1.75
2022-09-13T18:02:37.604Z,1.77
2022-09-13T18:05:09.536Z,1.67
2022-09-13T18:07:40.246Z,1.52
2022-09-13T18:10:24.932Z,1.80
2022-09-13T18:12:57.680Z,1.80
2022-09-13T18:15:26.099Z,1.67
2022-09-13T18:17:55.898Z,1.58
2022-09-13T18:20:24.400Z,1.80
2022-09-13T18:22:52.792Z,2.17
2022-09-13T18:25:23.549Z,1.92
2022-09-13T18:27:51.953Z,1.98
2022-09-13T18:30:20.360Z,1.90
2022-09-13T18:32:48.778Z,1.73
2022-09-13T18:35:18.533Z,1.92
2022-09-13T18:37:46.945Z,1.80
2022-09-13T18:40:17.457Z,1.60
2022-09-13T18:42:45.929Z,2.20
2022-09-13T18:45:14.333Z,2.58
2022-09-13T18:47:42.758Z,2.63
2022-09-13T18:50:11.786Z,2.47
2022-09-13T18:52:43.385Z,2.33
2022-09-13T18:55:11.823Z,2.38
2022-09-13T18:57:40.288Z,2.08
2022-09-13T19:00:09.487Z,2.08
2022-09-13T19:02:51.999Z,2.30
2022-09-13T19:05:27.206Z,2.17
2022-09-13T19:07:57.252Z,2.33
2022-09-13T19:10:25.765Z,2.47
2022-09-13T19:12:54.203Z,2.25
2022-09-13T19:15:22.617Z,2.58
2022-09-13T19:17:52.176Z,1.30
2022-09-13T19:20:22.679Z,1.17
2022-09-13T19:22:52.294Z,1.35
2022-09-13T19:25:27.662Z,1.50
2022-09-13T19:27:56.082Z,1.70
2022-09-13T19:30:24.520Z,1.65
2022-09-13T19:32:52.918Z,1.50
2022-09-13T19:35:22.195Z,1.63
2022-09-13T19:37:50.795Z,2.10
2022-09-13T19:40:19.707Z,2.00
2022-09-13T19:42:49.549Z,1.80
2022-09-13T19:45:18.025Z,1.80
2022-09-13T19:48:37.225Z,2.17
2022-09-13T19:50:39.052Z,2.03
2022-09-13T19:53:07.438Z,1.88
2022-09-13T19:55:35.900Z,3.13
2022-09-13T19:58:05.902Z,1.58
2022-09-13T20:00:34.286Z,1.50
2022-09-13T20:03:03.550Z,1.35
2022-09-13T20:05:34.109Z,1.42
2022-09-13T20:08:02.889Z,1.08
2022-09-13T20:10:31.369Z,1.30
2022-09-13T20:13:00.059Z,1.48
2022-09-13T20:15:31.161Z,0.93
2022-09-13T20:17:59.672Z,1.45
2022-09-13T20:20:28.076Z,1.33
2022-09-13T20:22:56.472Z,1.45
2022-09-13T20:25:24.861Z,1.38
2022-09-13T20:27:53.428Z,1.20
2022-09-13T20:30:21.832Z,1.30
2022-09-13T20:32:54.612Z,1.30
2022-09-13T20:35:23.052Z,1.33
2022-09-13T20:37:51.521Z,1.50
2022-09-13T20:40:20.397Z,1.30
2022-09-13T20:42:49.636Z,1.40
2022-09-13T20:45:18.065Z,1.30
2022-09-13T20:47:46.824Z,1.42
2022-09-13T20:50:17.190Z,1.65
2022-09-13T20:52:45.732Z,1.30
2022-09-13T20:55:15.118Z,1.20
2022-09-13T20:57:43.622Z,1.23
2022-09-13T21:00:12.741Z,1.40
2022-09-13T21:02:42.004Z,1.48
2022-09-13T21:05:10.955Z,1.30
2022-09-13T21:07:58.213Z,1.45
2022-09-13T21:10:27.265Z,1.52
2022-09-13T21:12:56.233Z,2.10
2022-09-13T21:15:24.621Z,1.50
2022-09-13T21:17:53.013Z,1.60
2022-09-13T21:20:21.403Z,1.70
2022-09-13T21:22:51.201Z,1.30
2022-09-13T21:25:19.584Z,1.70
2022-09-13T21:27:48.036Z,1.65
2022-09-13T21:30:16.866Z,1.50
2022-09-13T21:32:45.249Z,1.67
2022-09-13T21:35:13.799Z,1.90
2022-09-13T21:37:42.561Z,2.10
2022-09-13T21:40:12.801Z,1.60
2022-09-13T21:42:41.261Z,1.77
2022-09-13T21:45:10.285Z,1.70
2022-09-13T21:47:38.674Z,1.42
2022-09-13T21:50:07.428Z,1.67
2022-09-13T21:52:35.825Z,1.60
2022-09-13T21:55:04.208Z,1.35
2022-09-13T21:57:34.199Z,1.58
2022-09-13T22:00:02.745Z,1.45
2022-09-13T22:02:31.183Z,1.13
2022-09-13T22:05:00.301Z,1.30
2022-09-13T22:07:28.685Z,1.40
2022-09-13T22:09:57.381Z,1.23
2022-09-13T22:12:25.809Z,1.40
2022-09-13T22:14:55.605Z,1.13
2022-09-13T22:17:23.985Z,1.15
2022-09-13T22:19:52.359Z,1.10
2022-09-13T22:22:20.881Z,1.20
2022-09-13T22:24:49.289Z,1.00
2022-09-13T22:27:17.672Z,1.02
2022-09-13T22:29:46.673Z,1.10
2022-09-13T22:32:18.509Z,1.45
2022-09-13T22:34:48.757Z,1.10
2022-09-13T22:37:17.169Z,0.90
2022-09-13T22:39:45.639Z,1.20
2022-09-13T22:42:14.124Z,1.00
2022-09-13T22:44:42.837Z,1.10
2022-09-13T22:47:11.260Z,1.20
2022-09-13T22:49:41.109Z,1.08
2022-09-13T22:52:09.519Z,0.90
2022-09-13T22:54:37.938Z,1.45
2022-09-13T22:57:06.316Z,0.98
2022-09-13T22:59:34.738Z,0.98
2022-09-13T23:02:03.167Z,1.00
2022-09-13T23:04:31.601Z,1.00
2022-09-13T23:07:01.356Z,1.00
2022-09-13T23:09:29.860Z,1.10
2022-09-13T23:11:58.267Z,1.00
2022-09-13T23:14:26.665Z,1.02
2022-09-13T23:16:55.271Z,0.90
2022-09-13T23:19:25.699Z,0.90
2022-09-13T23:21:54.600Z,1.17
2022-09-13T23:24:24.785Z,1.00
2022-09-13T23:26:56.927Z,1.00
2022-09-13T23:29:25.487Z,1.10
2022-09-13T23:31:53.975Z,1.10
2022-09-13T23:34:23.166Z,1.10
2022-09-13T23:36:52.504Z,1.10
2022-09-13T23:39:21.852Z,0.90
2022-09-13T23:41:52.152Z,1.30
2022-09-13T23:44:20.604Z,1.13
2022-09-13T23:46:49.121Z,1.17
2022-09-13T23:49:17.639Z,1.00
2022-09-13T23:51:46.128Z,1.30
2022-09-13T23:54:14.993Z,1.10
2022-09-13T23:56:43.807Z,0.85
2022-09-13T23:59:14.157Z,1.00
